Time;durP1;ratioP1;P1;durP2;ratioP2;P2;SDS_P1;SDS_P2;PMS_P1;PMS_P2;Temp;Humidity;BMP_temperature;BMP_pressure;BME280_temperature;BME280_humidity;BME280_pressure;Samples;Min_cycle;Max_cycle;Signal;HPM_P1;HPM_P2
2022/04/05 00:00:52;;;;;;;6.75;1.40;;;7.40;99.90;;;;;;5014885;28;20033;-75
2022/04/05 00:03:18;;;;;;;5.20;1.60;;;7.40;99.90;;;;;;5015694;28;20087;-75
2022/04/05 00:05:43;;;;;;;5.18;1.50;;;7.40;99.90;;;;;;4998310;28;20433;-75
2022/04/05 00:08:09;;;;;;;6.10;1.40;;;7.50;99.90;;;;;;4998572;28;20115;-74
2022/04/05 00:10:36;;;;;;;6.35;1.40;;;7.40;99.90;;;;;;4998301;28;20040;-74
2022/04/05 00:13:05;;;;;;;6.07;1.60;;;7.40;99.90;;;;;;4999233;28;20037;-74
2022/04/05 00:15:32;;;;;;;5.70;1.45;;;7.40;99.90;;;;;;4996978;28;20057;-75
2022/04/05 00:17:58;;;;;;;8.30;2.05;;;7.40;99.90;;;;;;5015621;28;20087;-74
2022/04/05 00:20:23;;;;;;;6.22;1.50;;;7.30;99.90;;;;;;5015155;28;20068;-74
2022/04/05 00:22:49;;;;;;;7.93;1.48;;;7.30;99.90;;;;;;5012138;28;20441;-74
2022/04/05 00:25:14;;;;;;;6.55;1.30;;;7.40;99.90;;;;;;5011262;28;20033;-74
2022/04/05 00:27:40;;;;;;;4.25;1.23;;;7.40;99.90;;;;;;5011593;28;20033;-75
2022/04/05 00:30:06;;;;;;;6.57;1.35;;;7.40;99.90;;;;;;4995734;28;20034;-74
2022/04/05 00:32:31;;;;;;;5.40;1.50;;;7.30;99.90;;;;;;5011167;28;20095;-74
2022/04/05 00:34:57;;;;;;;6.47;1.42;;;7.40;99.90;;;;;;4998493;28;20143;-74
2022/04/05 00:37:22;;;;;;;5.20;1.30;;;7.30;99.90;;;;;;5015102;28;20045;-75
2022/04/05 00:39:50;;;;;;;7.22;1.40;;;7.30;99.90;;;;;;4999649;28;20048;-75
2022/04/05 00:42:16;;;;;;;8.75;1.35;;;7.30;99.90;;;;;;4997472;28;20123;-74
2022/04/05 00:44:42;;;;;;;10.30;1.40;;;7.30;99.90;;;;;;4999411;28;20061;-74
2022/04/05 00:47:26;;;;;;;7.65;1.42;;;7.30;99.90;;;;;;5014941;28;20034;-75
2022/04/05 00:49:53;;;;;;;6.50;1.13;;;7.30;99.90;;;;;;4996389;28;20124;-75
2022/04/05 00:52:20;;;;;;;5.75;1.15;;;7.40;99.90;;;;;;4980732;28;20042;-75
2022/04/05 00:54:47;;;;;;;6.28;1.25;;;7.40;99.90;;;;;;5015620;28;20498;-75
2022/04/05 00:57:16;;;;;;;9.68;1.50;;;7.30;99.90;;;;;;4998571;28;20042;-75
2022/04/05 00:59:44;;;;;;;5.78;1.75;;;7.30;99.90;;;;;;5010272;28;20092;-75
2022/04/05 01:02:16;;;;;;;5.47;1.10;;;7.30;99.90;;;;;;4999183;28;20033;-74
2022/04/05 01:04:44;;;;;;;6.78;1.05;;;7.30;99.90;;;;;;4999223;28;20046;-74
2022/04/05 01:07:15;;;;;;;7.72;1.73;;;7.20;99.90;;;;;;4996540;28;20037;-74
2022/04/05 01:09:41;;;;;;;5.47;1.33;;;7.30;99.90;;;;;;5015586;28;20050;-74
2022/04/05 01:12:08;;;;;;;4.57;0.98;;;7.20;99.90;;;;;;5013825;28;20474;-75
2022/04/05 01:14:34;;;;;;;7.22;1.27;;;7.20;99.90;;;;;;5014438;28;20042;-75
2022/04/05 01:17:00;;;;;;;5.50;1.25;;;7.20;99.90;;;;;;5015387;28;20133;-75
2022/04/05 01:19:27;;;;;;;6.80;1.33;;;7.20;99.90;;;;;;5014378;28;20069;-75
2022/04/05 01:21:52;;;;;;;7.88;1.73;;;7.20;99.90;;;;;;5015062;28;20062;-74
2022/04/05 01:24:18;;;;;;;5.72;1.27;;;7.20;99.90;;;;;;4997843;28;20064;-74
2022/04/05 01:26:44;;;;;;;5.40;1.25;;;7.20;99.90;;;;;;4998902;28;20042;-74
2022/04/05 01:29:11;;;;;;;5.18;1.25;;;7.20;99.90;;;;;;4998213;28;20088;-74
2022/04/05 01:32:04;;;;;;;5.70;1.10;;;7.20;99.90;;;;;;4997171;28;20053;-75
2022/04/05 01:34:31;;;;;;;6.68;1.17;;;7.10;99.90;;;;;;5008650;28;20054;-75
2022/04/05 01:37:00;;;;;;;5.57;1.27;;;7.10;99.90;;;;;;5014263;28;20112;-75
2022/04/05 01:39:33;;;;;;;6.25;1.55;;;7.10;99.90;;;;;;4998610;28;20042;-74
2022/04/05 01:42:05;;;;;;;6.53;1.20;;;7.20;99.90;;;;;;5013724;28;20038;-74
2022/04/05 01:44:32;;;;;;;5.28;1.48;;;7.20;99.90;;;;;;4979036;28;20039;-74
2022/04/05 01:47:12;;;;;;;7.88;1.35;;;7.20;99.90;;;;;;4982922;28;20030;-74
2022/04/05 01:49:38;;;;;;;7.57;1.38;;;7.20;99.90;;;;;;4998532;28;20046;-75
2022/04/05 01:52:04;;;;;;;10.65;1.50;;;7.20;99.90;;;;;;5013982;28;20079;-75
2022/04/05 01:54:30;;;;;;;8.00;1.60;;;7.10;99.90;;;;;;4998330;28;20042;-74
2022/04/05 01:56:55;;;;;;;6.78;1.10;;;7.10;99.90;;;;;;4997665;28;20046;-75
2022/04/05 01:59:26;;;;;;;9.93;1.50;;;7.20;99.90;;;;;;5015013;28;20038;-75
2022/04/05 02:01:52;;;;;;;5.38;1.23;;;7.20;99.90;;;;;;5014038;28;20453;-75
2022/04/05 02:04:19;;;;;;;8.05;1.50;;;7.30;99.90;;;;;;4998474;28;20038;-74
2022/04/05 02:06:45;;;;;;;7.22;1.30;;;7.20;99.90;;;;;;4997533;28;20050;-74
2022/04/05 02:09:14;;;;;;;8.48;1.33;;;7.10;99.90;;;;;;5013404;28;20042;-75
2022/04/05 02:11:41;;;;;;;7.00;1.33;;;7.10;99.90;;;;;;5014390;28;20100;-75
2022/04/05 02:14:06;;;;;;;4.68;1.17;;;7.10;99.90;;;;;;5013171;28;20045;-75
2022/04/05 02:16:32;;;;;;;7.35;1.15;;;7.10;99.90;;;;;;5014164;28;20450;-74
2022/04/05 02:18:58;;;;;;;7.10;1.38;;;7.10;99.90;;;;;;5013150;28;20453;-75
2022/04/05 02:21:24;;;;;;;5.15;1.20;;;7.10;99.90;;;;;;5000667;28;20107;-75
2022/04/05 02:23:50;;;;;;;8.68;1.20;;;7.10;99.90;;;;;;5016667;28;20084;-75
2022/04/05 02:26:16;;;;;;;5.72;1.25;;;7.20;99.90;;;;;;5017527;28;20077;-75
2022/04/05 02:28:42;;;;;;;5.47;1.40;;;7.20;99.90;;;;;;5016444;28;20037;-74
2022/04/05 02:31:08;;;;;;;8.15;3.17;;;7.20;99.90;;;;;;5017321;28;20052;-74
2022/04/05 02:33:34;;;;;;;9.50;1.67;;;7.20;99.90;;;;;;5016429;28;20037;-74
2022/04/05 02:36:00;;;;;;;5.55;1.23;;;7.20;99.90;;;;;;5001014;28;20029;-75
2022/04/05 02:38:26;;;;;;;3.70;1.10;;;7.20;99.90;;;;;;4999349;28;20038;-74
2022/04/05 02:40:52;;;;;;;8.95;1.60;;;7.20;99.90;;;;;;5017102;28;20124;-74
2022/04/05 02:43:18;;;;;;;9.18;1.95;;;7.20;99.90;;;;;;4999840;28;20378;-74
2022/04/05 02:45:43;;;;;;;7.32;1.48;;;7.20;99.90;;;;;;5000571;28;20037;-74
2022/04/05 02:48:09;;;;;;;10.23;1.70;;;7.20;99.90;;;;;;5015427;28;20041;-74
2022/04/05 02:50:35;;;;;;;6.70;1.40;;;7.20;99.90;;;;;;5017270;28;20038;-75
2022/04/05 02:53:01;;;;;;;9.05;1.60;;;7.20;99.90;;;;;;5016140;28;20563;-75
2022/04/05 02:55:27;;;;;;;7.45;1.48;;;7.20;99.90;;;;;;5016808;28;20136;-75
2022/04/05 02:57:52;;;;;;;7.25;1.58;;;7.20;99.90;;;;;;5014960;28;20041;-74
2022/04/05 03:00:19;;;;;;;7.90;1.42;;;7.20;99.90;;;;;;5016826;28;20367;-75
2022/04/05 03:02:45;;;;;;;7.60;1.80;;;7.20;99.90;;;;;;4996467;28;20037;-74
2022/04/05 03:05:13;;;;;;;9.20;1.50;;;7.20;99.90;;;;;;4980791;28;20034;-75
2022/04/05 03:07:40;;;;;;;10.35;2.05;;;7.20;99.90;;;;;;4980347;28;20552;-74
2022/04/05 03:10:11;;;;;;;8.15;2.13;;;7.20;99.90;;;;;;4997178;28;20117;-74
2022/04/05 03:12:37;;;;;;;8.25;1.63;;;7.20;99.90;;;;;;4980656;28;20406;-75
2022/04/05 03:15:06;;;;;;;7.00;1.70;;;7.20;99.90;;;;;;4980700;28;20034;-74
2022/04/05 03:17:32;;;;;;;10.70;1.88;;;7.20;99.90;;;;;;4990685;28;20038;-74
2022/04/05 03:20:01;;;;;;;8.57;1.92;;;7.20;99.90;;;;;;5014864;28;20092;-74
2022/04/05 03:22:27;;;;;;;8.32;1.80;;;7.20;99.90;;;;;;4996496;28;20045;-74
2022/04/05 03:24:52;;;;;;;8.63;2.90;;;7.20;99.90;;;;;;5012271;28;20092;-75
2022/04/05 03:27:18;;;;;;;13.98;2.65;;;7.30;99.90;;;;;;4996775;28;20041;-74
2022/04/05 03:29:43;;;;;;;8.45;2.10;;;7.20;99.90;;;;;;5012438;28;20041;-74
2022/04/05 03:32:11;;;;;;;7.32;2.25;;;7.20;99.90;;;;;;5012847;28;20042;-74
2022/04/05 03:34:39;;;;;;;10.25;2.60;;;7.20;99.90;;;;;;5011848;28;20038;-75
2022/04/05 03:37:05;;;;;;;10.32;2.38;;;7.20;99.90;;;;;;4995518;28;20049;-74
2022/04/05 03:39:31;;;;;;;11.23;2.15;;;7.20;99.90;;;;;;4995304;28;20429;-75
2022/04/05 03:42:00;;;;;;;11.60;2.70;;;7.20;99.90;;;;;;4994865;28;20073;-74
2022/04/05 03:44:26;;;;;;;14.18;2.78;;;7.10;99.90;;;;;;5012353;28;20045;-75
2022/04/05 03:46:52;;;;;;;8.98;2.50;;;7.10;99.90;;;;;;4991616;28;20046;-75
2022/04/05 03:49:19;;;;;;;11.75;2.45;;;7.20;99.90;;;;;;4993133;28;20050;-74
2022/04/05 03:51:45;;;;;;;12.95;2.38;;;7.20;99.90;;;;;;4994155;28;20517;-74
2022/04/05 03:54:10;;;;;;;9.90;2.28;;;7.20;99.90;;;;;;5012842;28;20520;-74
2022/04/05 03:56:36;;;;;;;11.00;2.60;;;7.20;99.90;;;;;;5010813;28;20073;-75
2022/04/05 03:59:02;;;;;;;14.20;2.92;;;7.20;99.90;;;;;;5009692;28;20050;-75
2022/04/05 04:01:28;;;;;;;11.68;2.17;;;7.20;99.90;;;;;;5012477;28;20066;-74
2022/04/05 04:03:53;;;;;;;16.42;2.17;;;7.20;99.90;;;;;;5010435;28;20061;-74
2022/04/05 04:06:19;;;;;;;11.95;3.17;;;7.20;99.90;;;;;;4988615;28;20045;-75
2022/04/05 04:08:44;;;;;;;9.00;2.30;;;7.20;99.90;;;;;;5008622;28;20052;-75
2022/04/05 04:11:10;;;;;;;11.68;2.08;;;7.10;99.90;;;;;;4985906;28;20038;-74
2022/04/05 04:13:35;;;;;;;14.43;2.35;;;7.10;99.90;;;;;;5009634;28;20042;-75
2022/04/05 04:16:01;;;;;;;11.50;2.20;;;7.10;99.90;;;;;;4992408;28;20100;-75
2022/04/05 04:18:26;;;;;;;8.27;1.63;;;7.10;99.90;;;;;;5014419;28;20034;-74
2022/04/05 04:20:52;;;;;;;19.10;2.47;;;7.10;99.90;;;;;;5027980;28;20049;-75
2022/04/05 04:23:19;;;;;;;13.55;2.30;;;7.10;99.90;;;;;;5002807;28;20125;-74
2022/04/05 04:25:45;;;;;;;15.15;2.25;;;7.10;99.90;;;;;;5032188;28;20030;-74
2022/04/05 04:28:10;;;;;;;12.00;2.00;;;7.10;99.90;;;;;;5005571;28;20048;-74
2022/04/05 04:30:38;;;;;;;10.50;2.20;;;7.10;99.90;;;;;;5012422;28;20081;-74
2022/04/05 04:33:05;;;;;;;11.65;2.13;;;7.00;99.90;;;;;;4995984;28;20046;-74
2022/04/05 04:35:31;;;;;;;14.65;3.05;;;7.00;99.90;;;;;;5012020;28;20038;-74
2022/04/05 04:37:58;;;;;;;12.15;2.60;;;7.00;99.90;;;;;;5012089;28;20441;-74
2022/04/05 04:40:25;;;;;;;11.13;2.67;;;7.00;99.90;;;;;;4995821;28;20041;-74
2022/04/05 04:42:50;;;;;;;11.90;2.15;;;7.10;99.90;;;;;;5012039;28;20501;-75
2022/04/05 04:45:16;;;;;;;10.70;2.15;;;7.00;99.90;;;;;;4995651;28;20038;-74
2022/04/05 04:47:41;;;;;;;9.30;1.90;;;7.00;99.90;;;;;;4995826;28;20061;-75
2022/04/05 04:50:08;;;;;;;12.65;2.10;;;7.00;99.90;;;;;;5012027;28;20040;-74
2022/04/05 04:52:34;;;;;;;13.25;2.33;;;7.00;99.90;;;;;;5011960;28;20124;-74
2022/04/05 04:55:00;;;;;;;13.35;2.03;;;7.00;99.90;;;;;;4995571;28;20522;-74
2022/04/05 04:57:25;;;;;;;11.80;2.13;;;6.90;99.90;;;;;;5012042;28;20038;-74
2022/04/05 04:59:52;;;;;;;9.48;2.20;;;6.90;99.90;;;;;;5011779;28;20042;-74
2022/04/05 05:02:22;;;;;;;9.50;2.00;;;7.00;99.90;;;;;;5010137;28;20034;-74
2022/04/05 05:04:50;;;;;;;13.32;1.92;;;6.90;99.90;;;;;;5011657;28;20042;-75
2022/04/05 05:07:16;;;;;;;11.70;1.92;;;7.00;99.90;;;;;;4994056;28;20049;-74
2022/04/05 05:09:41;;;;;;;8.63;2.00;;;6.90;99.90;;;;;;4975990;28;20046;-74
2022/04/05 05:12:10;;;;;;;11.50;2.78;;;7.00;99.90;;;;;;5021597;28;20548;-74
2022/04/05 05:14:36;;;;;;;9.23;2.10;;;7.00;99.90;;;;;;4994289;28;20104;-74
2022/04/05 05:17:02;;;;;;;11.25;2.25;;;7.00;99.90;;;;;;4991480;28;20444;-74
2022/04/05 05:19:27;;;;;;;13.43;2.17;;;7.00;99.90;;;;;;5011874;28;20042;-74
2022/04/05 05:21:53;;;;;;;8.60;1.77;;;7.00;99.90;;;;;;4998781;28;20580;-74
2022/04/05 05:24:18;;;;;;;9.90;1.92;;;7.00;99.90;;;;;;5015269;28;20122;-74
2022/04/05 05:26:44;;;;;;;10.73;2.20;;;7.00;99.90;;;;;;5015225;28;20080;-74
2022/04/05 05:29:09;;;;;;;9.43;2.50;;;7.00;99.90;;;;;;5015273;28;20049;-74
2022/04/05 05:31:35;;;;;;;9.30;2.83;;;7.10;99.90;;;;;;4996866;28;20049;-74
2022/04/05 05:34:00;;;;;;;9.35;2.90;;;7.10;99.90;;;;;;4979281;28;20034;-74
2022/04/05 05:36:26;;;;;;;11.48;2.28;;;7.00;99.90;;;;;;4995550;28;20049;-74
2022/04/05 05:38:52;;;;;;;8.57;2.10;;;7.10;99.90;;;;;;4995271;28;20054;-75
2022/04/05 05:41:17;;;;;;;11.18;2.38;;;7.20;99.90;;;;;;4995438;28;20038;-74
2022/04/05 05:43:45;;;;;;;10.93;2.60;;;7.20;99.90;;;;;;4979123;28;20038;-74
2022/04/05 05:46:12;;;;;;;7.88;2.28;;;7.20;99.90;;;;;;4995266;28;20052;-74
2022/04/05 05:48:37;;;;;;;7.50;2.33;;;7.20;99.90;;;;;;4978886;28;20042;-74
2022/04/05 05:51:03;;;;;;;9.75;2.40;;;7.20;99.90;;;;;;4995150;28;20053;-74
2022/04/05 05:53:28;;;;;;;9.30;2.30;;;7.20;99.90;;;;;;4979193;28;20078;-75
2022/04/05 05:55:54;;;;;;;10.10;2.22;;;7.20;99.90;;;;;;4978825;28;20069;-74
2022/04/05 05:58:19;;;;;;;9.63;2.15;;;7.20;99.90;;;;;;4978917;28;20088;-74
2022/04/05 06:00:45;;;;;;;6.47;2.38;;;7.20;99.90;;;;;;4995123;28;20048;-74
2022/04/05 06:03:11;;;;;;;7.90;2.30;;;7.20;99.90;;;;;;4999975;28;20405;-74
2022/04/05 06:05:36;;;;;;;9.10;2.50;;;7.20;99.90;;;;;;5013667;28;20119;-74
2022/04/05 06:08:04;;;;;;;10.02;2.22;;;7.20;99.90;;;;;;5012335;28;20042;-74
2022/04/05 06:10:30;;;;;;;9.60;2.47;;;7.20;99.90;;;;;;4997933;28;20125;-74
2022/04/05 06:12:57;;;;;;;7.65;2.58;;;7.20;99.90;;;;;;5013940;28;20189;-75
2022/04/05 06:15:25;;;;;;;10.85;2.83;;;7.20;99.90;;;;;;4997855;28;20041;-74
2022/04/05 06:17:51;;;;;;;7.88;2.58;;;7.20;99.90;;;;;;5011904;28;20059;-74
2022/04/05 06:20:19;;;;;;;6.35;2.20;;;7.20;99.90;;;;;;5012451;28;20042;-74
2022/04/05 06:22:49;;;;;;;8.60;2.20;;;7.20;99.90;;;;;;5011785;28;20042;-74
2022/04/05 06:25:17;;;;;;;7.88;2.95;;;7.30;99.90;;;;;;4994320;28;20049;-74
2022/04/05 06:27:43;;;;;;;6.45;2.28;;;7.30;99.90;;;;;;4995776;28;20379;-75
2022/04/05 06:30:10;;;;;;;8.18;2.30;;;7.20;99.90;;;;;;5010606;28;20037;-74
2022/04/05 06:32:36;;;;;;;7.28;2.63;;;7.20;99.90;;;;;;5011341;28;20490;-75
2022/04/05 06:35:04;;;;;;;10.05;2.50;;;7.20;99.90;;;;;;4990762;28;20042;-75
2022/04/05 06:37:31;;;;;;;10.88;2.50;;;7.20;99.90;;;;;;5011687;28;20038;-74
2022/04/05 06:39:56;;;;;;;6.75;2.05;;;7.30;99.90;;;;;;4995957;28;20452;-75
2022/04/05 06:42:22;;;;;;;6.35;1.98;;;7.50;99.90;;;;;;5012387;28;20128;-74
2022/04/05 06:44:48;;;;;;;7.78;2.33;;;7.50;99.90;;;;;;4996610;28;20122;-76
2022/04/05 06:47:14;;;;;;;8.55;2.15;;;7.40;99.90;;;;;;5000161;28;20045;-75
2022/04/05 06:49:40;;;;;;;10.30;2.17;;;7.40;99.90;;;;;;5010050;28;20041;-75
2022/04/05 06:52:05;;;;;;;8.52;2.05;;;7.40;99.90;;;;;;4995758;28;20038;-76
2022/04/05 06:54:31;;;;;;;9.65;2.50;;;7.50;99.90;;;;;;5012392;28;20577;-75
2022/04/05 06:56:56;;;;;;;7.40;2.53;;;7.50;99.90;;;;;;5011614;28;20069;-75
2022/04/05 06:59:22;;;;;;;8.20;2.13;;;7.50;99.90;;;;;;4996365;28;20042;-75
2022/04/05 07:01:47;;;;;;;11.07;2.20;;;7.50;99.90;;;;;;5010986;28;20045;-75
2022/04/05 07:04:13;;;;;;;9.95;2.40;;;7.60;99.90;;;;;;5013471;28;20034;-75
2022/04/05 07:06:38;;;;;;;8.93;1.95;;;7.60;99.90;;;;;;4996737;28;20061;-75
2022/04/05 07:09:05;;;;;;;8.30;2.22;;;7.70;99.90;;;;;;5009981;28;20085;-75
2022/04/05 07:11:31;;;;;;;8.00;2.03;;;7.80;99.90;;;;;;5011149;28;20049;-76
2022/04/05 07:13:57;;;;;;;6.13;1.88;;;7.70;99.90;;;;;;4994516;28;20056;-75
2022/04/05 07:16:23;;;;;;;6.68;1.58;;;7.70;99.90;;;;;;4995148;28;20046;-75
2022/04/05 07:18:49;;;;;;;9.38;2.10;;;7.70;99.90;;;;;;4992063;28;20050;-76
2022/04/05 07:21:15;;;;;;;9.57;1.92;;;7.70;99.90;;;;;;4996462;28;20069;-75
2022/04/05 07:23:44;;;;;;;8.50;1.90;;;7.80;99.90;;;;;;4998778;28;20405;-76
2022/04/05 07:26:10;;;;;;;7.65;1.67;;;7.90;99.90;;;;;;4998968;28;20080;-75
2022/04/05 07:28:36;;;;;;;6.18;1.73;;;7.90;99.90;;;;;;5013492;28;20084;-75
2022/04/05 07:31:02;;;;;;;7.70;1.77;;;8.00;99.90;;;;;;5014605;28;20073;-75
2022/04/05 07:33:28;;;;;;;9.88;2.38;;;8.00;99.90;;;;;;5014179;28;20053;-75
2022/04/05 07:35:54;;;;;;;10.35;2.20;;;8.00;99.90;;;;;;5013226;28;20042;-75
2022/04/05 07:38:19;;;;;;;6.82;1.85;;;7.90;99.90;;;;;;4995212;28;20041;-75
2022/04/05 07:40:47;;;;;;;8.25;2.40;;;7.90;99.90;;;;;;5021517;28;20034;-76
2022/04/05 07:43:24;;;;;;;8.88;2.60;;;7.80;99.90;;;;;;5013000;28;20095;-75
2022/04/05 07:45:51;;;;;;;7.95;2.42;;;7.90;99.90;;;;;;5014371;28;20052;-75
2022/04/05 07:48:21;;;;;;;7.25;2.00;;;7.90;99.90;;;;;;5013322;28;20048;-75
2022/04/05 07:50:48;;;;;;;7.95;2.00;;;7.90;99.90;;;;;;5012681;28;20048;-78
2022/04/05 07:53:14;;;;;;;8.27;2.20;;;7.80;99.90;;;;;;5013525;28;20405;-77
2022/04/05 07:55:39;;;;;;;7.60;2.10;;;7.80;99.90;;;;;;4997947;28;20046;-76
2022/04/05 07:58:05;;;;;;;11.52;2.55;;;7.80;99.90;;;;;;5015578;28;20073;-75
2022/04/05 08:00:31;;;;;;;10.43;2.25;;;7.80;99.90;;;;;;4994431;28;20042;-76
2022/04/05 08:02:56;;;;;;;12.27;3.70;;;7.80;99.90;;;;;;5008488;28;20383;-75
2022/04/05 08:05:23;;;;;;;12.05;3.17;;;7.70;99.90;;;;;;4993206;28;20040;-76
2022/04/05 08:07:49;;;;;;;9.30;2.67;;;7.80;99.90;;;;;;5013971;28;20041;-76
2022/04/05 08:10:16;;;;;;;9.30;2.63;;;7.80;99.90;;;;;;5014736;28;20037;-76
2022/04/05 08:12:46;;;;;;;9.25;2.33;;;7.90;99.90;;;;;;4995459;28;20090;-76
2022/04/05 08:15:15;;;;;;;8.75;2.00;;;7.80;99.90;;;;;;5015160;28;20041;-76
2022/04/05 08:17:40;;;;;;;8.20;2.55;;;7.80;99.90;;;;;;5013533;28;20041;-75
2022/04/05 08:20:07;;;;;;;7.03;1.92;;;7.80;99.90;;;;;;5014898;28;20045;-76
2022/04/05 08:22:32;;;;;;;7.22;2.05;;;7.90;99.90;;;;;;5002894;28;20049;-75
2022/04/05 08:24:58;;;;;;;5.47;1.67;;;7.90;99.90;;;;;;5012551;28;20125;-76
2022/04/05 08:27:24;;;;;;;7.35;2.15;;;7.90;99.90;;;;;;5014456;28;20362;-76
2022/04/05 08:29:49;;;;;;;7.57;2.15;;;8.10;99.90;;;;;;5014789;28;20091;-75
2022/04/05 08:32:15;;;;;;;6.43;1.65;;;8.00;99.90;;;;;;5014914;28;20405;-75
2022/04/05 08:34:42;;;;;;;8.38;1.98;;;8.00;99.90;;;;;;5014955;28;20448;-76
2022/04/05 08:37:08;;;;;;;7.05;2.60;;;8.10;99.90;;;;;;4997532;28;20053;-75
2022/04/05 08:39:38;;;;;;;7.30;1.75;;;8.10;99.90;;;;;;5014819;28;20092;-76
2022/04/05 08:42:04;;;;;;;6.15;1.95;;;8.10;99.90;;;;;;4996947;28;20044;-75
2022/04/05 08:44:30;;;;;;;6.30;1.83;;;8.20;99.90;;;;;;4998677;28;20044;-75
2022/04/05 08:46:59;;;;;;;5.78;1.73;;;8.20;99.90;;;;;;5008576;28;20116;-75
2022/04/05 08:49:25;;;;;;;4.53;1.60;;;8.20;99.90;;;;;;5014114;28;20095;-75
2022/04/05 08:51:50;;;;;;;6.95;1.80;;;8.20;99.90;;;;;;5013961;28;20043;-75
2022/04/05 08:54:16;;;;;;;7.10;1.80;;;8.30;99.90;;;;;;4998697;28;20037;-75
2022/04/05 08:56:42;;;;;;;7.93;1.45;;;8.30;99.90;;;;;;5001772;28;20037;-76
2022/04/05 08:59:07;;;;;;;11.70;2.55;;;8.40;99.90;;;;;;5001245;28;20045;-76
2022/04/05 09:01:34;;;;;;;4.45;1.48;;;8.30;99.90;;;;;;5018747;28;20037;-75
2022/04/05 09:04:00;;;;;;;4.32;1.70;;;8.50;99.90;;;;;;4997001;28;20045;-75
2022/04/05 09:06:36;;;;;;;6.47;1.70;;;8.60;99.90;;;;;;4999602;28;20378;-76
2022/04/05 09:09:14;;;;;;;4.95;1.58;;;8.80;99.90;;;;;;4982706;28;20038;-76
2022/04/05 09:11:52;;;;;;;5.90;1.58;;;8.80;99.90;;;;;;5005582;28;20064;-76
2022/04/05 09:14:27;;;;;;;5.63;1.38;;;8.80;99.90;;;;;;5009082;28;20038;-75
2022/04/05 09:17:08;;;;;;;5.10;1.35;;;8.80;99.90;;;;;;5017420;28;20045;-75
2022/04/05 09:19:38;;;;;;;6.47;1.48;;;8.80;99.90;;;;;;5001603;28;20064;-76
2022/04/05 09:22:04;;;;;;;5.38;1.45;;;8.90;99.90;;;;;;4997472;28;20049;-75
2022/04/05 09:24:37;;;;;;;3.53;1.55;;;8.80;99.90;;;;;;5000993;28;20481;-75
2022/04/05 09:27:04;;;;;;;5.43;1.45;;;8.90;99.90;;;;;;5002073;28;20049;-76
2022/04/05 09:29:44;;;;;;;4.63;1.35;;;8.80;99.90;;;;;;5016516;28;20044;-76
2022/04/05 09:32:30;;;;;;;3.58;1.13;;;8.90;99.90;;;;;;5004514;28;20041;-75
2022/04/05 09:34:55;;;;;;;6.18;1.40;;;8.90;99.90;;;;;;5017097;28;20042;-76
2022/04/05 09:37:26;;;;;;;6.53;1.92;;;8.90;99.90;;;;;;5016890;28;20053;-76
2022/04/05 09:39:52;;;;;;;4.28;1.38;;;8.80;99.90;;;;;;5012238;28;20059;-76
2022/04/05 09:42:17;;;;;;;4.78;1.30;;;8.80;99.90;;;;;;4985173;28;20037;-76
2022/04/05 09:44:43;;;;;;;4.47;2.00;;;8.80;99.90;;;;;;5001428;28;20069;-76
2022/04/05 09:47:16;;;;;;;3.53;1.20;;;8.80;99.90;;;;;;4999438;28;20033;-76
2022/04/05 09:49:43;;;;;;;5.35;1.30;;;8.80;99.90;;;;;;5016716;28;20053;-75
2022/04/05 09:52:24;;;;;;;3.05;1.30;;;8.80;99.90;;;;;;5016498;28;20047;-76
2022/04/05 09:54:49;;;;;;;4.07;1.20;;;8.80;99.90;;;;;;5000062;28;20562;-76
2022/04/05 09:57:30;;;;;;;6.13;1.90;;;8.80;99.90;;;;;;5000964;28;20041;-76
2022/04/05 10:00:13;;;;;;;5.07;1.33;;;8.80;99.90;;;;;;5016328;28;20440;-76
2022/04/05 10:03:02;;;;;;;3.65;1.17;;;8.80;99.90;;;;;;5016452;28;20069;-76
2022/04/05 10:05:29;;;;;;;2.97;1.23;;;8.80;99.90;;;;;;4999689;28;20088;-75
2022/04/05 10:07:55;;;;;;;4.68;1.52;;;8.80;99.90;;;;;;5016540;28;20451;-76
2022/04/05 10:10:21;;;;;;;4.57;1.50;;;9.00;99.90;;;;;;5001199;28;20083;-75
2022/04/05 10:12:47;;;;;;;4.80;1.63;;;9.00;99.90;;;;;;5017692;28;20401;-75
2022/04/05 10:15:13;;;;;;;6.47;1.38;;;9.10;99.90;;;;;;5000891;28;20038;-76
2022/04/05 10:17:44;;;;;;;4.47;1.50;;;9.00;99.90;;;;;;5017002;28;20385;-76
2022/04/05 10:20:09;;;;;;;5.47;1.80;;;8.90;99.90;;;;;;5015880;28;20042;-76
2022/04/05 10:22:37;;;;;;;6.30;1.63;;;8.90;99.90;;;;;;5003062;28;20107;-75
2022/04/05 10:25:03;;;;;;;5.95;1.70;;;8.90;99.90;;;;;;4983342;28;20045;-75
2022/04/05 10:27:29;;;;;;;5.00;1.80;;;9.00;99.90;;;;;;4995734;28;20116;-76
2022/04/05 10:30:16;;;;;;;6.78;1.70;;;9.10;99.90;;;;;;5007495;28;20079;-75
2022/04/05 10:33:00;;;;;;;4.47;1.42;;;9.20;99.90;;;;;;5015246;28;20049;-76
2022/04/05 10:35:29;;;;;;;3.00;1.00;;;9.20;99.90;;;;;;5006275;28;20037;-75
2022/04/05 10:38:18;;;;;;;2.22;1.20;;;9.40;99.90;;;;;;5025131;28;20478;-75
2022/04/05 10:41:20;;;;;;;2.08;1.10;;;9.30;99.90;;;;;;5011910;28;20048;-75
2022/04/05 10:44:06;;;;;;;3.90;1.20;;;9.40;99.90;;;;;;5017822;28;20048;-75
2022/04/05 10:46:39;;;;;;;2.72;1.30;;;9.40;99.90;;;;;;4994360;28;20576;-76
2022/04/05 10:49:07;;;;;;;;;;;9.50;99.90;;;;;;5016091;28;20037;-75
2022/04/05 10:52:09;;;;;;;2.88;1.20;;;9.50;99.90;;;;;;4995520;28;20284;-76
2022/04/05 10:54:39;;;;;;;2.53;1.10;;;9.40;99.90;;;;;;5015366;28;20112;-76
2022/04/05 10:57:26;;;;;;;1.67;0.98;;;9.70;99.90;;;;;;5015623;28;20045;-76
2022/04/05 10:59:58;;;;;;;2.53;1.17;;;9.50;99.90;;;;;;4999766;28;20089;-76
2022/04/05 11:02:37;;;;;;;2.55;1.20;;;9.50;99.90;;;;;;4983744;28;20478;-76
2022/04/05 11:05:15;;;;;;;1.33;1.10;;;9.40;99.90;;;;;;5011177;28;20045;-75
2022/04/05 11:07:52;;;;;;;1.50;1.08;;;9.40;99.90;;;;;;4998906;28;20393;-76
2022/04/05 11:10:19;;;;;;;2.35;0.93;;;9.40;99.90;;;;;;5016139;28;20099;-76
2022/04/05 11:12:45;;;;;;;2.00;1.17;;;9.50;99.90;;;;;;5011223;28;20042;-77
2022/04/05 11:15:14;;;;;;;1.80;0.95;;;9.60;99.90;;;;;;4997205;28;20073;-76
2022/04/05 11:17:42;;;;;;;1.58;1.08;;;9.70;99.90;;;;;;4999198;28;20041;-76
2022/04/05 11:20:09;;;;;;;1.35;1.08;;;9.60;99.90;;;;;;4990971;28;20073;-76
2022/04/05 11:22:38;;;;;;;2.13;1.30;;;9.60;99.90;;;;;;4999761;28;20061;-77
2022/04/05 11:25:25;;;;;;;2.13;1.23;;;9.60;99.90;;;;;;5013542;28;20061;-76
2022/04/05 11:27:52;;;;;;;1.90;1.20;;;9.60;99.90;;;;;;4980027;28;20045;-76
2022/04/05 11:30:21;;;;;;;2.60;1.30;;;9.90;99.90;;;;;;4994830;28;20042;-77
2022/04/05 11:33:20;;;;;;;2.25;1.30;;;10.00;99.90;;;;;;4997886;28;20477;-77
2022/04/05 11:35:51;;;;;;;2.60;1.40;;;10.10;99.90;;;;;;5005144;28;20128;-77
2022/04/05 11:38:17;;;;;;;3.20;1.60;;;10.20;99.90;;;;;;4995484;28;20433;-76
2022/04/05 11:41:05;;;;;;;3.15;1.63;;;10.10;99.90;;;;;;4996135;28;20038;-77
2022/04/05 11:43:45;;;;;;;3.00;1.50;;;10.10;99.90;;;;;;4996329;28;20034;-76
2022/04/05 11:46:33;;;;;;;2.78;1.60;;;10.20;99.90;;;;;;4999171;28;20037;-76
2022/04/05 11:49:03;;;;;;;2.38;1.70;;;10.20;99.90;;;;;;5013767;28;20041;-77
2022/04/05 11:51:35;;;;;;;3.97;1.48;;;10.10;99.90;;;;;;4998156;28;20069;-77
2022/04/05 11:54:11;;;;;;;2.22;1.35;;;10.20;99.90;;;;;;4999072;28;20037;-75
2022/04/05 11:56:41;;;;;;;2.50;1.63;;;10.20;99.90;;;;;;5014822;28;20034;-74
2022/04/05 11:59:08;;;;;;;2.60;1.38;;;10.10;99.90;;;;;;5015368;28;20089;-74
2022/04/05 12:01:37;;;;;;;3.10;1.60;;;10.00;99.90;;;;;;5014564;28;20041;-75
2022/04/05 12:04:17;;;;;;;2.55;1.50;;;10.00;99.90;;;;;;4998841;28;20489;-75
2022/04/05 12:06:45;;;;;;;2.95;1.73;;;10.00;99.90;;;;;;5014110;28;20041;-75
2022/04/05 12:09:12;;;;;;;3.20;1.88;;;10.10;99.90;;;;;;4995777;28;20115;-74
2022/04/05 12:11:41;;;;;;;3.03;1.70;;;10.10;99.90;;;;;;4997572;28;20033;-75
2022/04/05 12:14:12;;;;;;;2.65;1.58;;;10.10;99.90;;;;;;4997446;28;20398;-75
2022/04/05 12:16:58;;;;;;;3.65;1.77;;;10.20;99.90;;;;;;5015255;28;20041;-74
2022/04/05 12:19:24;;;;;;;4.03;1.90;;;10.20;99.90;;;;;;4996947;28;20042;-74
2022/04/05 12:21:57;;;;;;;3.17;1.80;;;10.20;99.90;;;;;;4998360;28;20050;-74
2022/04/05 12:24:25;;;;;;;4.03;2.10;;;10.20;99.90;;;;;;5015140;28;20046;-74
2022/04/05 12:26:51;;;;;;;4.40;2.30;;;10.30;99.90;;;;;;5015143;28;20382;-74
2022/04/05 12:29:17;;;;;;;5.60;2.70;;;10.30;99.90;;;;;;5015009;28;20033;-74
2022/04/05 12:31:43;;;;;;;4.65;2.22;;;10.40;99.90;;;;;;4999019;28;20038;-75
2022/04/05 12:34:13;;;;;;;4.65;2.30;;;10.30;99.90;;;;;;5002576;28;20460;-75
2022/04/05 12:36:45;;;;;;;4.15;2.35;;;10.30;99.90;;;;;;5018189;28;20041;-75
2022/04/05 12:39:18;;;;;;;4.65;2.50;;;10.40;99.90;;;;;;5017316;28;20398;-74
2022/04/05 12:41:46;;;;;;;3.47;1.58;;;10.40;99.90;;;;;;5002276;28;20033;-74
2022/04/05 12:44:14;;;;;;;6.53;3.20;;;10.60;99.90;;;;;;5017198;28;20505;-74
2022/04/05 12:46:48;;;;;;;6.30;3.33;;;10.50;99.90;;;;;;4983411;28;20069;-74
2022/04/05 12:49:18;;;;;;;6.57;3.10;;;10.40;99.90;;;;;;5018018;28;20053;-75
2022/04/05 12:51:45;;;;;;;5.70;3.03;;;10.50;99.90;;;;;;5018767;28;20029;-74
2022/04/05 12:54:23;;;;;;;7.10;3.70;;;10.50;99.90;;;;;;5016290;28;20124;-74
2022/04/05 12:56:49;;;;;;;7.43;3.58;;;10.50;99.90;;;;;;5016842;28;20069;-74
2022/04/05 12:59:25;;;;;;;8.10;3.58;;;10.50;99.90;;;;;;5000164;28;20481;-75
2022/04/05 13:01:55;;;;;;;6.32;3.33;;;10.50;99.90;;;;;;5017686;28;20037;-75